sensor_id;sensor_type;location;lat;lon;timestamp;P1;durP1;ratioP1;P2;durP2;ratioP2
18407;SDS011;9330;52.210;21.174;2022-07-04T00:01:46;5.53;;;5.00;;
18407;SDS011;9330;52.210;21.174;2022-07-04T00:04:13;5.68;;;5.18;;
18407;SDS011;9330;52.210;21.174;2022-07-04T00:06:41;5.72;;;4.68;;
18407;SDS011;9330;52.210;21.174;2022-07-04T00:09:08;5.32;;;4.80;;
18407;SDS011;9330;52.210;21.174;2022-07-04T00:11:35;7.80;;;4.88;;
18407;SDS011;9330;52.210;21.174;2022-07-04T00:14:01;5.20;;;4.45;;
18407;SDS011;9330;52.210;21.174;2022-07-04T00:16:28;6.07;;;4.95;;
18407;SDS011;9330;52.210;21.174;2022-07-04T00:18:55;5.22;;;4.72;;
18407;SDS011;9330;52.210;21.174;2022-07-04T00:21:23;5.38;;;4.88;;
18407;SDS011;9330;52.210;21.174;2022-07-04T00:23:50;5.40;;;4.90;;
18407;SDS011;9330;52.210;21.174;2022-07-04T00:26:17;5.55;;;5.00;;
18407;SDS011;9330;52.210;21.174;2022-07-04T00:28:44;5.07;;;4.57;;
18407;SDS011;9330;52.210;21.174;2022-07-04T00:31:11;5.90;;;5.18;;
18407;SDS011;9330;52.210;21.174;2022-07-04T00:33:38;5.35;;;4.88;;
18407;SDS011;9330;52.210;21.174;2022-07-04T00:36:05;5.55;;;5.05;;
18407;SDS011;9330;52.210;21.174;2022-07-04T00:38:33;5.40;;;4.85;;
18407;SDS011;9330;52.210;21.174;2022-07-04T00:41:00;5.95;;;5.43;;
18407;SDS011;9330;52.210;21.174;2022-07-04T00:43:28;6.93;;;5.32;;
18407;SDS011;9330;52.210;21.174;2022-07-04T00:45:55;5.60;;;4.93;;
18407;SDS011;9330;52.210;21.174;2022-07-04T00:48:23;5.90;;;5.03;;
18407;SDS011;9330;52.210;21.174;2022-07-04T00:50:50;6.22;;;4.97;;
18407;SDS011;9330;52.210;21.174;2022-07-04T00:53:18;5.45;;;4.95;;
18407;SDS011;9330;52.210;21.174;2022-07-04T00:55:48;6.03;;;5.13;;
18407;SDS011;9330;52.210;21.174;2022-07-04T00:58:17;7.57;;;5.88;;
18407;SDS011;9330;52.210;21.174;2022-07-04T01:00:46;6.00;;;5.40;;
18407;SDS011;9330;52.210;21.174;2022-07-04T01:03:13;5.38;;;4.85;;
18407;SDS011;9330;52.210;21.174;2022-07-04T01:05:40;5.70;;;5.20;;
18407;SDS011;9330;52.210;21.174;2022-07-04T01:08:08;5.85;;;5.20;;
18407;SDS011;9330;52.210;21.174;2022-07-04T01:10:37;5.90;;;5.30;;
18407;SDS011;9330;52.210;21.174;2022-07-04T01:13:05;6.03;;;5.43;;
18407;SDS011;9330;52.210;21.174;2022-07-04T01:15:32;6.20;;;5.60;;
18407;SDS011;9330;52.210;21.174;2022-07-04T01:17:59;6.00;;;5.40;;
18407;SDS011;9330;52.210;21.174;2022-07-04T01:20:27;5.90;;;5.20;;
18407;SDS011;9330;52.210;21.174;2022-07-04T01:23:01;6.30;;;5.68;;
18407;SDS011;9330;52.210;21.174;2022-07-04T01:25:28;5.65;;;5.15;;
18407;SDS011;9330;52.210;21.174;2022-07-04T01:27:55;6.55;;;5.93;;
18407;SDS011;9330;52.210;21.174;2022-07-04T01:30:21;6.43;;;5.82;;
18407;SDS011;9330;52.210;21.174;2022-07-04T01:32:48;6.75;;;6.05;;
18407;SDS011;9330;52.210;21.174;2022-07-04T01:35:15;6.35;;;5.75;;
18407;SDS011;9330;52.210;21.174;2022-07-04T01:37:44;6.45;;;5.68;;
18407;SDS011;9330;52.210;21.174;2022-07-04T01:40:11;5.88;;;5.35;;
18407;SDS011;9330;52.210;21.174;2022-07-04T01:42:38;6.28;;;5.72;;
18407;SDS011;9330;52.210;21.174;2022-07-04T01:45:06;6.85;;;6.00;;
18407;SDS011;9330;52.210;21.174;2022-07-04T01:47:33;7.25;;;6.53;;
18407;SDS011;9330;52.210;21.174;2022-07-04T01:50:00;7.95;;;6.28;;
18407;SDS011;9330;52.210;21.174;2022-07-04T01:52:28;6.97;;;6.20;;
18407;SDS011;9330;52.210;21.174;2022-07-04T01:54:59;6.85;;;6.15;;
18407;SDS011;9330;52.210;21.174;2022-07-04T01:57:26;6.82;;;6.22;;
18407;SDS011;9330;52.210;21.174;2022-07-04T01:59:53;6.32;;;5.72;;
18407;SDS011;9330;52.210;21.174;2022-07-04T02:02:37;7.22;;;6.20;;
18407;SDS011;9330;52.210;21.174;2022-07-04T02:05:04;6.93;;;6.30;;
18407;SDS011;9330;52.210;21.174;2022-07-04T02:07:32;6.88;;;6.18;;
18407;SDS011;9330;52.210;21.174;2022-07-04T02:10:00;8.02;;;6.47;;
18407;SDS011;9330;52.210;21.174;2022-07-04T02:12:27;6.93;;;6.05;;
18407;SDS011;9330;52.210;21.174;2022-07-04T02:15:12;7.97;;;6.72;;
18407;SDS011;9330;52.210;21.174;2022-07-04T02:17:39;7.35;;;6.40;;
18407;SDS011;9330;52.210;21.174;2022-07-04T02:20:06;7.95;;;6.55;;
18407;SDS011;9330;52.210;21.174;2022-07-04T02:22:33;7.25;;;6.55;;
18407;SDS011;9330;52.210;21.174;2022-07-04T02:25:02;6.55;;;5.97;;
18407;SDS011;9330;52.210;21.174;2022-07-04T02:27:29;6.68;;;6.07;;
18407;SDS011;9330;52.210;21.174;2022-07-04T02:29:56;7.03;;;6.32;;
18407;SDS011;9330;52.210;21.174;2022-07-04T02:32:23;7.22;;;6.53;;
18407;SDS011;9330;52.210;21.174;2022-07-04T02:34:50;7.07;;;6.45;;
18407;SDS011;9330;52.210;21.174;2022-07-04T02:37:17;6.78;;;6.03;;
18407;SDS011;9330;52.210;21.174;2022-07-04T02:39:44;7.40;;;6.10;;
18407;SDS011;9330;52.210;21.174;2022-07-04T02:42:12;7.88;;;6.63;;
18407;SDS011;9330;52.210;21.174;2022-07-04T02:44:39;7.00;;;6.40;;
18407;SDS011;9330;52.210;21.174;2022-07-04T02:47:06;7.10;;;6.20;;
18407;SDS011;9330;52.210;21.174;2022-07-04T02:49:33;6.85;;;6.25;;
18407;SDS011;9330;52.210;21.174;2022-07-04T02:52:00;7.00;;;6.30;;
18407;SDS011;9330;52.210;21.174;2022-07-04T02:54:27;6.47;;;5.88;;
18407;SDS011;9330;52.210;21.174;2022-07-04T02:56:54;6.63;;;5.93;;
18407;SDS011;9330;52.210;21.174;2022-07-04T02:59:22;6.90;;;6.20;;
18407;SDS011;9330;52.210;21.174;2022-07-04T03:01:49;6.60;;;6.00;;
18407;SDS011;9330;52.210;21.174;2022-07-04T03:04:16;6.65;;;6.00;;
18407;SDS011;9330;52.210;21.174;2022-07-04T03:06:43;7.22;;;6.53;;
18407;SDS011;9330;52.210;21.174;2022-07-04T03:09:10;7.22;;;6.63;;
18407;SDS011;9330;52.210;21.174;2022-07-04T03:11:37;7.00;;;6.40;;
18407;SDS011;9330;52.210;21.174;2022-07-04T03:14:03;6.93;;;6.32;;
18407;SDS011;9330;52.210;21.174;2022-07-04T03:16:32;7.25;;;6.50;;
18407;SDS011;9330;52.210;21.174;2022-07-04T03:18:59;7.32;;;6.63;;
18407;SDS011;9330;52.210;21.174;2022-07-04T03:21:25;7.50;;;6.80;;
18407;SDS011;9330;52.210;21.174;2022-07-04T03:23:52;6.90;;;6.22;;
18407;SDS011;9330;52.210;21.174;2022-07-04T03:26:25;6.90;;;6.25;;
18407;SDS011;9330;52.210;21.174;2022-07-04T03:28:54;6.95;;;6.30;;
18407;SDS011;9330;52.210;21.174;2022-07-04T03:31:21;7.63;;;6.45;;
18407;SDS011;9330;52.210;21.174;2022-07-04T03:33:51;7.20;;;6.50;;
18407;SDS011;9330;52.210;21.174;2022-07-04T03:36:18;7.00;;;6.30;;
18407;SDS011;9330;52.210;21.174;2022-07-04T03:38:46;7.88;;;6.30;;
18407;SDS011;9330;52.210;21.174;2022-07-04T03:41:13;7.00;;;6.40;;
18407;SDS011;9330;52.210;21.174;2022-07-04T03:43:40;6.95;;;6.35;;
18407;SDS011;9330;52.210;21.174;2022-07-04T03:46:07;6.80;;;6.20;;
18407;SDS011;9330;52.210;21.174;2022-07-04T03:48:34;6.47;;;5.88;;
18407;SDS011;9330;52.210;21.174;2022-07-04T03:51:02;7.40;;;6.80;;
18407;SDS011;9330;52.210;21.174;2022-07-04T03:53:29;7.45;;;6.20;;
18407;SDS011;9330;52.210;21.174;2022-07-04T03:55:56;6.93;;;6.30;;
18407;SDS011;9330;52.210;21.174;2022-07-04T03:58:23;7.05;;;6.35;;
18407;SDS011;9330;52.210;21.174;2022-07-04T04:00:50;8.85;;;8.05;;
18407;SDS011;9330;52.210;21.174;2022-07-04T04:03:16;8.13;;;7.30;;
18407;SDS011;9330;52.210;21.174;2022-07-04T04:06:02;8.10;;;7.30;;
18407;SDS011;9330;52.210;21.174;2022-07-04T04:08:29;7.38;;;6.68;;
18407;SDS011;9330;52.210;21.174;2022-07-04T04:10:56;6.82;;;6.22;;
18407;SDS011;9330;52.210;21.174;2022-07-04T04:13:23;6.82;;;6.20;;
18407;SDS011;9330;52.210;21.174;2022-07-04T04:15:50;7.50;;;6.75;;
18407;SDS011;9330;52.210;21.174;2022-07-04T04:18:17;7.70;;;7.00;;
18407;SDS011;9330;52.210;21.174;2022-07-04T04:20:44;8.52;;;7.78;;
18407;SDS011;9330;52.210;21.174;2022-07-04T04:23:12;9.15;;;8.35;;
18407;SDS011;9330;52.210;21.174;2022-07-04T04:25:39;8.27;;;7.45;;
18407;SDS011;9330;52.210;21.174;2022-07-04T04:28:07;8.30;;;7.60;;
18407;SDS011;9330;52.210;21.174;2022-07-04T04:30:34;8.85;;;8.00;;
18407;SDS011;9330;52.210;21.174;2022-07-04T04:33:01;8.50;;;7.70;;
18407;SDS011;9330;52.210;21.174;2022-07-04T04:35:28;11.27;;;9.32;;
18407;SDS011;9330;52.210;21.174;2022-07-04T04:37:55;8.70;;;7.97;;
18407;SDS011;9330;52.210;21.174;2022-07-04T04:40:23;9.38;;;8.48;;
18407;SDS011;9330;52.210;21.174;2022-07-04T04:42:50;9.52;;;8.52;;
18407;SDS011;9330;52.210;21.174;2022-07-04T04:45:17;9.32;;;8.55;;
18407;SDS011;9330;52.210;21.174;2022-07-04T04:47:44;9.57;;;8.75;;
18407;SDS011;9330;52.210;21.174;2022-07-04T04:50:11;8.93;;;8.13;;
18407;SDS011;9330;52.210;21.174;2022-07-04T04:52:39;8.60;;;7.80;;
18407;SDS011;9330;52.210;21.174;2022-07-04T04:55:07;9.10;;;8.30;;
18407;SDS011;9330;52.210;21.174;2022-07-04T04:57:35;8.35;;;7.55;;
18407;SDS011;9330;52.210;21.174;2022-07-04T05:00:03;9.68;;;8.70;;
18407;SDS011;9330;52.210;21.174;2022-07-04T05:02:31;8.18;;;7.47;;
18407;SDS011;9330;52.210;21.174;2022-07-04T05:04:57;8.75;;;7.95;;
18407;SDS011;9330;52.210;21.174;2022-07-04T05:07:24;7.93;;;7.10;;
18407;SDS011;9330;52.210;21.174;2022-07-04T05:09:52;8.15;;;7.45;;
18407;SDS011;9330;52.210;21.174;2022-07-04T05:12:23;6.32;;;5.72;;
18407;SDS011;9330;52.210;21.174;2022-07-04T05:14:51;6.97;;;6.20;;
18407;SDS011;9330;52.210;21.174;2022-07-04T05:17:19;7.40;;;6.65;;
18407;SDS011;9330;52.210;21.174;2022-07-04T05:19:46;6.47;;;5.88;;
18407;SDS011;9330;52.210;21.174;2022-07-04T05:22:13;6.80;;;6.20;;
18407;SDS011;9330;52.210;21.174;2022-07-04T05:24:40;6.05;;;5.28;;
18407;SDS011;9330;52.210;21.174;2022-07-04T05:27:08;6.20;;;5.65;;
18407;SDS011;9330;52.210;21.174;2022-07-04T05:29:35;5.80;;;5.30;;
18407;SDS011;9330;52.210;21.174;2022-07-04T05:32:04;5.88;;;5.30;;
18407;SDS011;9330;52.210;21.174;2022-07-04T05:34:31;5.75;;;4.60;;
18407;SDS011;9330;52.210;21.174;2022-07-04T05:36:59;5.30;;;4.80;;
18407;SDS011;9330;52.210;21.174;2022-07-04T05:39:25;6.43;;;5.82;;
18407;SDS011;9330;52.210;21.174;2022-07-04T05:41:53;6.70;;;6.00;;
18407;SDS011;9330;52.210;21.174;2022-07-04T05:44:20;6.50;;;5.75;;
18407;SDS011;9330;52.210;21.174;2022-07-04T05:46:48;5.88;;;5.10;;
18407;SDS011;9330;52.210;21.174;2022-07-04T05:49:16;5.57;;;5.07;;
18407;SDS011;9330;52.210;21.174;2022-07-04T05:51:43;5.85;;;5.35;;
18407;SDS011;9330;52.210;21.174;2022-07-04T05:54:10;5.85;;;5.35;;
18407;SDS011;9330;52.210;21.174;2022-07-04T05:56:37;9.75;;;5.35;;
18407;SDS011;9330;52.210;21.174;2022-07-04T05:59:05;5.47;;;4.97;;
18407;SDS011;9330;52.210;21.174;2022-07-04T06:01:32;6.10;;;5.57;;
18407;SDS011;9330;52.210;21.174;2022-07-04T06:04:00;5.57;;;5.07;;
18407;SDS011;9330;52.210;21.174;2022-07-04T06:06:28;4.57;;;4.18;;
18407;SDS011;9330;52.210;21.174;2022-07-04T06:08:55;4.85;;;4.05;;
18407;SDS011;9330;52.210;21.174;2022-07-04T06:11:22;5.25;;;4.75;;
18407;SDS011;9330;52.210;21.174;2022-07-04T06:13:50;5.45;;;4.40;;
18407;SDS011;9330;52.210;21.174;2022-07-04T06:16:17;5.20;;;4.28;;
18407;SDS011;9330;52.210;21.174;2022-07-04T06:18:44;4.68;;;4.28;;
18407;SDS011;9330;52.210;21.174;2022-07-04T06:21:11;6.13;;;5.35;;
18407;SDS011;9330;52.210;21.174;2022-07-04T06:23:39;5.78;;;5.28;;
18407;SDS011;9330;52.210;21.174;2022-07-04T06:26:06;4.40;;;4.00;;
18407;SDS011;9330;52.210;21.174;2022-07-04T06:28:34;5.03;;;4.53;;
18407;SDS011;9330;52.210;21.174;2022-07-04T06:31:03;4.85;;;4.32;;
18407;SDS011;9330;52.210;21.174;2022-07-04T06:33:30;4.60;;;4.20;;
18407;SDS011;9330;52.210;21.174;2022-07-04T06:35:57;4.78;;;4.35;;
18407;SDS011;9330;52.210;21.174;2022-07-04T06:38:24;6.60;;;6.00;;
18407;SDS011;9330;52.210;21.174;2022-07-04T06:40:54;4.28;;;3.88;;
18407;SDS011;9330;52.210;21.174;2022-07-04T06:43:24;6.85;;;6.20;;
18407;SDS011;9330;52.210;21.174;2022-07-04T06:45:52;4.57;;;3.92;;
18407;SDS011;9330;52.210;21.174;2022-07-04T06:48:20;3.78;;;3.47;;
18407;SDS011;9330;52.210;21.174;2022-07-04T06:50:47;4.65;;;4.15;;
18407;SDS011;9330;52.210;21.174;2022-07-04T06:53:14;3.67;;;3.38;;
18407;SDS011;9330;52.210;21.174;2022-07-04T06:55:41;4.00;;;3.60;;
18407;SDS011;9330;52.210;21.174;2022-07-04T06:58:10;6.40;;;5.80;;
18407;SDS011;9330;52.210;21.174;2022-07-04T07:00:38;4.78;;;4.38;;
18407;SDS011;9330;52.210;21.174;2022-07-04T07:03:06;4.38;;;3.97;;
18407;SDS011;9330;52.210;21.174;2022-07-04T07:05:33;3.78;;;3.47;;
18407;SDS011;9330;52.210;21.174;2022-07-04T07:08:02;4.45;;;4.05;;
18407;SDS011;9330;52.210;21.174;2022-07-04T07:10:29;4.82;;;4.25;;
18407;SDS011;9330;52.210;21.174;2022-07-04T07:12:57;5.68;;;5.18;;
18407;SDS011;9330;52.210;21.174;2022-07-04T07:15:25;10.02;;;7.50;;
18407;SDS011;9330;52.210;21.174;2022-07-04T07:17:52;6.90;;;6.20;;
18407;SDS011;9330;52.210;21.174;2022-07-04T07:20:19;5.72;;;5.10;;
18407;SDS011;9330;52.210;21.174;2022-07-04T07:22:46;5.22;;;4.72;;
18407;SDS011;9330;52.210;21.174;2022-07-04T07:25:13;4.40;;;4.00;;
18407;SDS011;9330;52.210;21.174;2022-07-04T07:27:40;6.35;;;5.70;;
18407;SDS011;9330;52.210;21.174;2022-07-04T07:30:07;4.13;;;3.83;;
18407;SDS011;9330;52.210;21.174;2022-07-04T07:32:36;4.90;;;3.97;;
18407;SDS011;9330;52.210;21.174;2022-07-04T07:35:04;5.82;;;4.22;;
18407;SDS011;9330;52.210;21.174;2022-07-04T07:37:31;7.45;;;6.07;;
18407;SDS011;9330;52.210;21.174;2022-07-04T07:39:58;5.88;;;5.28;;
18407;SDS011;9330;52.210;21.174;2022-07-04T07:42:26;6.47;;;4.05;;
18407;SDS011;9330;52.210;21.174;2022-07-04T07:44:53;5.07;;;3.80;;
18407;SDS011;9330;52.210;21.174;2022-07-04T07:47:24;7.20;;;6.47;;
18407;SDS011;9330;52.210;21.174;2022-07-04T07:49:57;5.47;;;4.97;;
18407;SDS011;9330;52.210;21.174;2022-07-04T07:52:25;5.82;;;5.22;;
18407;SDS011;9330;52.210;21.174;2022-07-04T07:54:52;4.70;;;4.03;;
18407;SDS011;9330;52.210;21.174;2022-07-04T07:57:25;4.05;;;3.55;;
18407;SDS011;9330;52.210;21.174;2022-07-04T07:59:54;3.45;;;3.17;;
18407;SDS011;9330;52.210;21.174;2022-07-04T08:02:21;4.07;;;3.67;;
18407;SDS011;9330;52.210;21.174;2022-07-04T08:05:13;3.88;;;3.00;;
18407;SDS011;9330;52.210;21.174;2022-07-04T08:07:44;3.97;;;3.63;;
18407;SDS011;9330;52.210;21.174;2022-07-04T08:10:14;5.00;;;3.50;;
18407;SDS011;9330;52.210;21.174;2022-07-04T08:12:42;5.25;;;4.70;;
18407;SDS011;9330;52.210;21.174;2022-07-04T08:15:09;5.05;;;3.70;;
18407;SDS011;9330;52.210;21.174;2022-07-04T08:17:37;4.25;;;3.85;;
18407;SDS011;9330;52.210;21.174;2022-07-04T08:20:04;4.00;;;2.92;;
18407;SDS011;9330;52.210;21.174;2022-07-04T08:22:35;3.67;;;2.75;;
18407;SDS011;9330;52.210;21.174;2022-07-04T08:25:02;3.03;;;2.78;;
18407;SDS011;9330;52.210;21.174;2022-07-04T08:27:29;2.97;;;2.63;;
18407;SDS011;9330;52.210;21.174;2022-07-04T08:30:05;3.53;;;3.20;;
18407;SDS011;9330;52.210;21.174;2022-07-04T08:32:34;3.00;;;2.40;;
18407;SDS011;9330;52.210;21.174;2022-07-04T08:35:03;5.95;;;3.10;;
18407;SDS011;9330;52.210;21.174;2022-07-04T08:37:31;3.50;;;3.20;;
18407;SDS011;9330;52.210;21.174;2022-07-04T08:40:00;4.63;;;2.78;;
18407;SDS011;9330;52.210;21.174;2022-07-04T08:42:33;2.85;;;2.65;;
18407;SDS011;9330;52.210;21.174;2022-07-04T08:45:03;4.40;;;2.67;;
18407;SDS011;9330;52.210;21.174;2022-07-04T08:47:32;4.85;;;1.90;;
18407;SDS011;9330;52.210;21.174;2022-07-04T08:50:05;3.88;;;3.53;;
18407;SDS011;9330;52.210;21.174;2022-07-04T08:52:35;4.28;;;2.90;;
18407;SDS011;9330;52.210;21.174;2022-07-04T08:55:06;2.50;;;2.30;;
18407;SDS011;9330;52.210;21.174;2022-07-04T08:57:52;4.13;;;2.40;;
18407;SDS011;9330;52.210;21.174;2022-07-04T09:00:37;4.13;;;3.05;;
18407;SDS011;9330;52.210;21.174;2022-07-04T09:03:05;3.67;;;2.60;;
18407;SDS011;9330;52.210;21.174;2022-07-04T09:05:33;2.97;;;2.58;;
18407;SDS011;9330;52.210;21.174;2022-07-04T09:08:01;2.72;;;2.40;;
18407;SDS011;9330;52.210;21.174;2022-07-04T09:10:31;4.00;;;3.03;;
18407;SDS011;9330;52.210;21.174;2022-07-04T09:13:00;4.35;;;2.85;;
18407;SDS011;9330;52.210;21.174;2022-07-04T09:15:28;3.58;;;3.28;;
18407;SDS011;9330;52.210;21.174;2022-07-04T09:17:56;4.18;;;3.78;;
18407;SDS011;9330;52.210;21.174;2022-07-04T09:20:23;4.47;;;3.13;;
18407;SDS011;9330;52.210;21.174;2022-07-04T09:22:52;3.53;;;2.55;;
18407;SDS011;9330;52.210;21.174;2022-07-04T09:25:20;2.83;;;2.25;;
18407;SDS011;9330;52.210;21.174;2022-07-04T09:27:49;2.78;;;2.25;;
18407;SDS011;9330;52.210;21.174;2022-07-04T09:30:17;2.65;;;2.28;;
18407;SDS011;9330;52.210;21.174;2022-07-04T09:32:46;4.47;;;2.33;;
18407;SDS011;9330;52.210;21.174;2022-07-04T09:35:16;4.03;;;2.20;;
18407;SDS011;9330;52.210;21.174;2022-07-04T09:37:44;2.95;;;2.05;;
18407;SDS011;9330;52.210;21.174;2022-07-04T09:40:20;2.47;;;2.17;;
18407;SDS011;9330;52.210;21.174;2022-07-04T09:42:50;2.40;;;2.20;;
18407;SDS011;9330;52.210;21.174;2022-07-04T09:45:19;3.00;;;2.03;;
18407;SDS011;9330;52.210;21.174;2022-07-04T09:47:49;5.88;;;2.75;;
18407;SDS011;9330;52.210;21.174;2022-07-04T09:50:17;4.78;;;2.40;;
18407;SDS011;9330;52.210;21.174;2022-07-04T09:52:45;4.22;;;2.50;;
18407;SDS011;9330;52.210;21.174;2022-07-04T09:55:22;4.72;;;3.03;;
18407;SDS011;9330;52.210;21.174;2022-07-04T09:57:52;3.00;;;1.98;;
18407;SDS011;9330;52.210;21.174;2022-07-04T10:00:21;4.90;;;2.72;;
18407;SDS011;9330;52.210;21.174;2022-07-04T10:02:50;2.28;;;1.83;;
18407;SDS011;9330;52.210;21.174;2022-07-04T10:05:22;1.88;;;1.70;;
18407;SDS011;9330;52.210;21.174;2022-07-04T10:07:51;3.08;;;1.70;;
18407;SDS011;9330;52.210;21.174;2022-07-04T10:10:20;3.30;;;2.45;;
18407;SDS011;9330;52.210;21.174;2022-07-04T10:12:57;3.33;;;2.00;;
18407;SDS011;9330;52.210;21.174;2022-07-04T10:15:25;2.50;;;1.63;;
18407;SDS011;9330;52.210;21.174;2022-07-04T10:17:52;3.65;;;2.20;;
18407;SDS011;9330;52.210;21.174;2022-07-04T10:20:19;1.92;;;1.70;;
18407;SDS011;9330;52.210;21.174;2022-07-04T10:22:46;1.88;;;1.42;;
18407;SDS011;9330;52.210;21.174;2022-07-04T10:25:14;1.73;;;1.60;;
18407;SDS011;9330;52.210;21.174;2022-07-04T10:27:42;2.45;;;1.52;;
18407;SDS011;9330;52.210;21.174;2022-07-04T10:30:12;3.55;;;1.65;;
18407;SDS011;9330;52.210;21.174;2022-07-04T10:32:42;3.42;;;1.70;;
18407;SDS011;9330;52.210;21.174;2022-07-04T10:35:12;2.15;;;1.45;;
18407;SDS011;9330;52.210;21.174;2022-07-04T10:40:39;2.28;;;1.80;;
18407;SDS011;9330;52.210;21.174;2022-07-04T10:46:26;2.13;;;1.90;;
18407;SDS011;9330;52.210;21.174;2022-07-04T10:48:57;2.33;;;1.63;;
18407;SDS011;9330;52.210;21.174;2022-07-04T10:51:32;2.33;;;1.80;;
18407;SDS011;9330;52.210;21.174;2022-07-04T10:54:08;3.83;;;2.00;;
18407;SDS011;9330;52.210;21.174;2022-07-04T10:56:41;2.92;;;1.80;;
18407;SDS011;9330;52.210;21.174;2022-07-04T10:59:14;2.40;;;1.88;;
18407;SDS011;9330;52.210;21.174;2022-07-04T11:01:46;1.92;;;1.73;;
18407;SDS011;9330;52.210;21.174;2022-07-04T11:07:13;2.30;;;1.90;;
18407;SDS011;9330;52.210;21.174;2022-07-04T11:09:41;3.83;;;2.60;;
18407;SDS011;9330;52.210;21.174;2022-07-04T11:12:09;3.28;;;2.25;;
18407;SDS011;9330;52.210;21.174;2022-07-04T11:14:38;3.20;;;1.70;;
18407;SDS011;9330;52.210;21.174;2022-07-04T11:17:08;2.97;;;1.92;;
18407;SDS011;9330;52.210;21.174;2022-07-04T11:19:36;2.25;;;1.73;;
18407;SDS011;9330;52.210;21.174;2022-07-04T11:22:04;2.28;;;1.58;;
18407;SDS011;9330;52.210;21.174;2022-07-04T11:24:32;3.35;;;1.73;;
18407;SDS011;9330;52.210;21.174;2022-07-04T11:26:59;2.28;;;1.65;;
18407;SDS011;9330;52.210;21.174;2022-07-04T11:29:27;2.35;;;1.65;;
18407;SDS011;9330;52.210;21.174;2022-07-04T11:31:54;2.45;;;1.50;;
18407;SDS011;9330;52.210;21.174;2022-07-04T11:34:23;2.85;;;1.55;;
18407;SDS011;9330;52.210;21.174;2022-07-04T11:36:51;2.45;;;1.70;;
18407;SDS011;9330;52.210;21.174;2022-07-04T11:39:19;2.05;;;1.90;;
18407;SDS011;9330;52.210;21.174;2022-07-04T11:41:48;1.67;;;1.58;;
18407;SDS011;9330;52.210;21.174;2022-07-04T11:44:34;2.20;;;1.70;;
18407;SDS011;9330;52.210;21.174;2022-07-04T11:47:21;1.60;;;1.50;;
18407;SDS011;9330;52.210;21.174;2022-07-04T11:49:51;1.60;;;1.40;;
18407;SDS011;9330;52.210;21.174;2022-07-04T11:52:19;5.05;;;1.98;;
18407;SDS011;9330;52.210;21.174;2022-07-04T11:54:48;3.00;;;1.55;;
18407;SDS011;9330;52.210;21.174;2022-07-04T11:57:17;3.13;;;1.90;;
18407;SDS011;9330;52.210;21.174;2022-07-04T11:59:53;2.17;;;1.90;;
18407;SDS011;9330;52.210;21.174;2022-07-04T12:02:23;3.72;;;1.90;;
18407;SDS011;9330;52.210;21.174;2022-07-04T12:04:59;4.05;;;2.13;;
18407;SDS011;9330;52.210;21.174;2022-07-04T12:07:27;2.58;;;1.70;;
18407;SDS011;9330;52.210;21.174;2022-07-04T12:09:57;3.38;;;1.98;;
18407;SDS011;9330;52.210;21.174;2022-07-04T12:12:33;2.05;;;1.83;;
18407;SDS011;9330;52.210;21.174;2022-07-04T12:15:02;2.35;;;1.67;;
18407;SDS011;9330;52.210;21.174;2022-07-04T12:17:32;2.90;;;1.70;;
18407;SDS011;9330;52.210;21.174;2022-07-04T12:20:02;3.00;;;1.80;;
18407;SDS011;9330;52.210;21.174;2022-07-04T12:22:38;2.38;;;1.83;;
18407;SDS011;9330;52.210;21.174;2022-07-04T12:25:07;3.92;;;2.17;;
18407;SDS011;9330;52.210;21.174;2022-07-04T12:27:51;2.45;;;1.70;;
18407;SDS011;9330;52.210;21.174;2022-07-04T12:30:19;2.28;;;1.50;;
18407;SDS011;9330;52.210;21.174;2022-07-04T12:32:48;3.50;;;1.88;;
18407;SDS011;9330;52.210;21.174;2022-07-04T12:35:33;2.78;;;1.80;;
18407;SDS011;9330;52.210;21.174;2022-07-04T12:38:10;2.10;;;1.73;;
18407;SDS011;9330;52.210;21.174;2022-07-04T12:40:48;2.58;;;1.63;;
18407;SDS011;9330;52.210;21.174;2022-07-04T12:43:20;2.50;;;1.75;;
18407;SDS011;9330;52.210;21.174;2022-07-04T12:45:48;6.05;;;1.90;;
18407;SDS011;9330;52.210;21.174;2022-07-04T12:48:17;2.40;;;1.55;;
18407;SDS011;9330;52.210;21.174;2022-07-04T12:50:47;1.67;;;1.58;;
18407;SDS011;9330;52.210;21.174;2022-07-04T12:53:14;2.00;;;1.40;;
18407;SDS011;9330;52.210;21.174;2022-07-04T12:55:42;2.58;;;1.80;;
18407;SDS011;9330;52.210;21.174;2022-07-04T12:58:10;2.72;;;1.60;;
18407;SDS011;9330;52.210;21.174;2022-07-04T13:00:37;1.75;;;1.50;;
18407;SDS011;9330;52.210;21.174;2022-07-04T13:03:05;4.25;;;1.90;;
18407;SDS011;9330;52.210;21.174;2022-07-04T13:05:33;3.47;;;1.75;;
18407;SDS011;9330;52.210;21.174;2022-07-04T13:08:02;2.33;;;1.70;;
18407;SDS011;9330;52.210;21.174;2022-07-04T13:10:30;1.80;;;1.48;;
18407;SDS011;9330;52.210;21.174;2022-07-04T13:12:58;3.80;;;1.60;;
18407;SDS011;9330;52.210;21.174;2022-07-04T13:15:26;2.55;;;1.73;;
18407;SDS011;9330;52.210;21.174;2022-07-04T13:17:53;2.03;;;1.65;;
18407;SDS011;9330;52.210;21.174;2022-07-04T13:20:20;2.13;;;1.40;;
18407;SDS011;9330;52.210;21.174;2022-07-04T13:22:47;2.10;;;1.50;;
18407;SDS011;9330;52.210;21.174;2022-07-04T13:25:15;3.80;;;1.45;;
18407;SDS011;9330;52.210;21.174;2022-07-04T13:27:42;1.77;;;1.60;;
18407;SDS011;9330;52.210;21.174;2022-07-04T13:30:10;2.67;;;1.73;;
18407;SDS011;9330;52.210;21.174;2022-07-04T13:32:38;2.05;;;1.50;;
18407;SDS011;9330;52.210;21.174;2022-07-04T13:35:05;2.72;;;1.90;;
18407;SDS011;9330;52.210;21.174;2022-07-04T13:37:33;1.65;;;1.55;;
18407;SDS011;9330;52.210;21.174;2022-07-04T13:40:00;2.65;;;1.50;;
18407;SDS011;9330;52.210;21.174;2022-07-04T13:42:28;2.17;;;1.70;;
18407;SDS011;9330;52.210;21.174;2022-07-04T13:45:13;2.45;;;1.70;;
18407;SDS011;9330;52.210;21.174;2022-07-04T13:47:41;1.77;;;1.63;;
18407;SDS011;9330;52.210;21.174;2022-07-04T13:50:08;2.88;;;1.80;;
18407;SDS011;9330;52.210;21.174;2022-07-04T13:52:36;2.33;;;1.70;;
18407;SDS011;9330;52.210;21.174;2022-07-04T13:55:03;2.95;;;2.20;;
18407;SDS011;9330;52.210;21.174;2022-07-04T13:57:32;2.40;;;1.50;;
18407;SDS011;9330;52.210;21.174;2022-07-04T13:59:59;2.63;;;2.15;;
18407;SDS011;9330;52.210;21.174;2022-07-04T14:02:26;2.05;;;1.70;;
18407;SDS011;9330;52.210;21.174;2022-07-04T14:04:52;1.90;;;1.70;;
18407;SDS011;9330;52.210;21.174;2022-07-04T14:07:19;3.10;;;2.10;;
18407;SDS011;9330;52.210;21.174;2022-07-04T14:09:46;4.38;;;2.25;;
18407;SDS011;9330;52.210;21.174;2022-07-04T14:12:14;3.80;;;2.10;;
18407;SDS011;9330;52.210;21.174;2022-07-04T14:14:42;2.47;;;1.80;;
18407;SDS011;9330;52.210;21.174;2022-07-04T14:17:10;2.58;;;1.75;;
18407;SDS011;9330;52.210;21.174;2022-07-04T14:19:37;3.47;;;1.98;;
18407;SDS011;9330;52.210;21.174;2022-07-04T14:22:04;2.05;;;1.77;;
18407;SDS011;9330;52.210;21.174;2022-07-04T14:24:31;2.45;;;1.85;;
18407;SDS011;9330;52.210;21.174;2022-07-04T14:26:58;2.67;;;1.75;;
18407;SDS011;9330;52.210;21.174;2022-07-04T14:29:25;2.97;;;2.67;;
18407;SDS011;9330;52.210;21.174;2022-07-04T14:31:53;3.83;;;2.35;;
18407;SDS011;9330;52.210;21.174;2022-07-04T14:34:20;2.15;;;1.92;;
18407;SDS011;9330;52.210;21.174;2022-07-04T14:36:47;3.15;;;1.92;;
18407;SDS011;9330;52.210;21.174;2022-07-04T14:39:14;2.53;;;2.00;;
18407;SDS011;9330;52.210;21.174;2022-07-04T14:41:41;2.83;;;2.10;;
18407;SDS011;9330;52.210;21.174;2022-07-04T14:44:08;2.90;;;1.88;;
18407;SDS011;9330;52.210;21.174;2022-07-04T14:46:34;3.00;;;1.85;;
18407;SDS011;9330;52.210;21.174;2022-07-04T14:49:03;3.05;;;2.03;;
18407;SDS011;9330;52.210;21.174;2022-07-04T14:51:30;2.92;;;2.03;;
18407;SDS011;9330;52.210;21.174;2022-07-04T14:53:56;2.58;;;2.10;;
18407;SDS011;9330;52.210;21.174;2022-07-04T14:56:23;1.80;;;1.70;;
18407;SDS011;9330;52.210;21.174;2022-07-04T14:58:50;3.53;;;1.88;;
18407;SDS011;9330;52.210;21.174;2022-07-04T15:01:17;2.03;;;1.80;;
18407;SDS011;9330;52.210;21.174;2022-07-04T15:03:46;2.80;;;2.50;;
18407;SDS011;9330;52.210;21.174;2022-07-04T15:06:15;3.20;;;1.90;;